Time;durP1;ratioP1;P1;durP2;ratioP2;P2;SDS_P1;SDS_P2;PMS_P1;PMS_P2;Temp;Humidity;BMP_temperature;BMP_pressure;BME280_temperature;BME280_humidity;BME280_pressure;Samples;Min_cycle;Max_cycle;Signal;HPM_P1;HPM_P2
2022/04/24 00:01:41;;;;;;;33.20;14.25;;;;;;;;;;4950907;28;20452;-65
2022/04/24 00:04:07;;;;;;;27.98;13.48;;;;;;;;;;4952130;28;20430;-65
2022/04/24 00:06:32;;;;;;;29.83;13.25;;;;;;;;;;4950950;28;20512;-64
2022/04/24 00:08:58;;;;;;;34.53;14.48;;;;;;;;;;4950755;28;20452;-65
2022/04/24 00:11:23;;;;;;;28.67;14.18;;;;;;;;;;4951489;28;20353;-66
2022/04/24 00:13:48;;;;;;;30.67;13.40;;;;;;;;;;4951634;28;20346;-64
2022/04/24 00:16:14;;;;;;;28.15;14.38;;;;;;;;;;4951355;28;20448;-65
2022/04/24 00:18:39;;;;;;;31.13;13.55;;;;;;;;;;4951043;28;20393;-65
2022/04/24 00:21:05;;;;;;;32.42;14.15;;;;;;;;;;4951395;28;20088;-65
2022/04/24 00:23:31;;;;;;;31.85;13.52;;;;;;;;;;4951563;28;20049;-65
2022/04/24 00:25:57;;;;;;;26.17;12.05;;;;;;;;;;4951227;28;20430;-64
2022/04/24 00:28:22;;;;;;;28.80;13.73;;;;;;;;;;4951459;28;20476;-65
2022/04/24 00:30:48;;;;;;;33.42;14.15;;;;;;;;;;4950689;28;20034;-65
2022/04/24 00:33:13;;;;;;;29.25;13.63;;;;;;;;;;4950690;28;20084;-66
2022/04/24 00:35:38;;;;;;;27.90;13.15;;;;;;;;;;4950629;28;20462;-65
2022/04/24 00:38:04;;;;;;;29.02;13.77;;;;;;;;;;4951106;28;20441;-65
2022/04/24 00:40:29;;;;;;;33.92;14.43;;;;;;;;;;4933044;28;20453;-64
2022/04/24 00:42:55;;;;;;;29.63;14.05;;;;;;;;;;4950836;28;20353;-64
2022/04/24 00:45:20;;;;;;;33.22;14.35;;;;;;;;;;4951075;28;20331;-65
2022/04/24 00:47:45;;;;;;;34.10;14.50;;;;;;;;;;4950611;28;20433;-65
2022/04/24 00:50:11;;;;;;;33.20;14.30;;;;;;;;;;4950412;28;20356;-65
2022/04/24 00:52:37;;;;;;;28.90;13.80;;;;;;;;;;4950688;28;20092;-65
2022/04/24 00:55:03;;;;;;;31.90;14.63;;;;;;;;;;4951215;28;20436;-65
2022/04/24 00:57:29;;;;;;;31.65;14.35;;;;;;;;;;4950268;28;20049;-65
2022/04/24 00:59:55;;;;;;;26.67;12.02;;;;;;;;;;4951550;28;20037;-67
2022/04/24 01:02:20;;;;;;;33.45;15.68;;;;;;;;;;4969528;28;20037;-64
2022/04/24 01:04:45;;;;;;;27.33;13.23;;;;;;;;;;4969768;28;20087;-65
2022/04/24 01:07:11;;;;;;;30.85;13.55;;;;;;;;;;4970114;28;20356;-64
2022/04/24 01:09:37;;;;;;;33.70;14.45;;;;;;;;;;4969199;28;20499;-65
2022/04/24 01:12:04;;;;;;;29.80;13.30;;;;;;;;;;4969770;28;20347;-65
2022/04/24 01:14:33;;;;;;;34.67;14.55;;;;;;;;;;4968920;28;20033;-65
2022/04/24 01:16:59;;;;;;;28.58;14.05;;;;;;;;;;4969654;28;20425;-65
2022/04/24 01:19:25;;;;;;;28.33;13.43;;;;;;;;;;4969450;28;20064;-65
2022/04/24 01:21:51;;;;;;;30.02;12.70;;;;;;;;;;4971250;28;20393;-65
2022/04/24 01:24:19;;;;;;;27.33;12.82;;;;;;;;;;4971110;28;20431;-65
2022/04/24 01:26:45;;;;;;;28.15;13.25;;;;;;;;;;4969351;28;20064;-65
2022/04/24 01:29:11;;;;;;;32.25;12.95;;;;;;;;;;4970286;28;20029;-65
2022/04/24 01:31:37;;;;;;;30.35;13.45;;;;;;;;;;4970762;28;20021;-65
2022/04/24 01:34:03;;;;;;;28.90;12.98;;;;;;;;;;4969381;28;20448;-65
2022/04/24 01:36:28;;;;;;;30.15;12.90;;;;;;;;;;4969948;28;20408;-65
2022/04/24 01:38:54;;;;;;;25.38;12.73;;;;;;;;;;4970253;28;20029;-64
2022/04/24 01:41:19;;;;;;;30.67;12.43;;;;;;;;;;4969404;28;20185;-64
2022/04/24 01:43:46;;;;;;;30.23;11.80;;;;;;;;;;4969319;28;20411;-64
2022/04/24 01:46:12;;;;;;;30.85;13.02;;;;;;;;;;4969495;28;20502;-65
2022/04/24 01:48:37;;;;;;;24.90;11.95;;;;;;;;;;4969091;28;20413;-65
2022/04/24 01:51:07;;;;;;;26.20;11.55;;;;;;;;;;4969332;28;20494;-65
2022/04/24 01:53:33;;;;;;;26.67;12.07;;;;;;;;;;4970635;28;20350;-65
2022/04/24 01:56:00;;;;;;;23.73;11.63;;;;;;;;;;4969147;28;20307;-65
2022/04/24 01:58:25;;;;;;;25.02;10.88;;;;;;;;;;4969274;28;20444;-65
2022/04/24 02:00:51;;;;;;;22.67;11.70;;;;;;;;;;4968573;28;20392;-65
2022/04/24 02:03:17;;;;;;;20.92;12.10;;;;;;;;;;4969395;28;20034;-64
2022/04/24 02:05:42;;;;;;;24.48;12.23;;;;;;;;;;4969069;28;20456;-65
2022/04/24 02:08:07;;;;;;;20.90;11.18;;;;;;;;;;4969072;28;20042;-65
2022/04/24 02:10:33;;;;;;;22.95;11.40;;;;;;;;;;4968610;28;20041;-65
2022/04/24 02:12:58;;;;;;;27.65;11.75;;;;;;;;;;4968844;28;20519;-65
2022/04/24 02:15:23;;;;;;;30.67;12.77;;;;;;;;;;4969362;28;20452;-65
2022/04/24 02:17:49;;;;;;;26.65;11.60;;;;;;;;;;4969630;28;20410;-65
2022/04/24 02:20:14;;;;;;;25.80;11.35;;;;;;;;;;4969064;28;20345;-65
2022/04/24 02:22:39;;;;;;;25.10;11.27;;;;;;;;;;4968835;28;20448;-65
2022/04/24 02:25:05;;;;;;;26.23;12.18;;;;;;;;;;4951205;28;20425;-65
2022/04/24 02:27:31;;;;;;;21.92;10.20;;;;;;;;;;4972495;28;20452;-64
2022/04/24 02:29:56;;;;;;;20.85;10.35;;;;;;;;;;4974263;28;20444;-64
2022/04/24 02:32:21;;;;;;;27.67;10.95;;;;;;;;;;4972407;28;20299;-64
2022/04/24 02:34:47;;;;;;;21.08;10.52;;;;;;;;;;4972730;28;20387;-64
2022/04/24 02:37:12;;;;;;;23.02;10.82;;;;;;;;;;4972397;28;20356;-64
2022/04/24 02:39:37;;;;;;;22.42;10.73;;;;;;;;;;4972824;28;20175;-64
2022/04/24 02:42:03;;;;;;;16.23;9.48;;;;;;;;;;4954361;28;20518;-65
2022/04/24 02:44:28;;;;;;;23.67;10.73;;;;;;;;;;4972810;28;20349;-65
2022/04/24 02:46:54;;;;;;;23.35;10.27;;;;;;;;;;4973953;28;20029;-65
2022/04/24 02:49:19;;;;;;;21.23;10.57;;;;;;;;;;4972027;28;20330;-64
2022/04/24 02:51:45;;;;;;;20.17;11.27;;;;;;;;;;4954828;28;20623;-64
2022/04/24 02:54:10;;;;;;;20.20;10.73;;;;;;;;;;4972280;28;20421;-64
2022/04/24 02:56:35;;;;;;;22.75;10.27;;;;;;;;;;4972307;28;20368;-64
2022/04/24 02:59:01;;;;;;;22.17;9.57;;;;;;;;;;4954984;28;20460;-67
2022/04/24 03:01:26;;;;;;;20.73;10.65;;;;;;;;;;4972049;28;20368;-64
2022/04/24 03:03:52;;;;;;;17.60;8.95;;;;;;;;;;4973707;28;20340;-65
2022/04/24 03:06:18;;;;;;;17.02;9.27;;;;;;;;;;4973312;28;20348;-64
2022/04/24 03:08:43;;;;;;;19.77;10.15;;;;;;;;;;4972530;28;20341;-65
2022/04/24 03:11:08;;;;;;;22.60;10.75;;;;;;;;;;4973034;28;20451;-65
2022/04/24 03:13:34;;;;;;;23.42;11.18;;;;;;;;;;4971901;28;20413;-65
2022/04/24 03:15:59;;;;;;;23.33;9.90;;;;;;;;;;4972210;28;20490;-64
2022/04/24 03:18:25;;;;;;;19.58;10.45;;;;;;;;;;4971438;28;20376;-64
2022/04/24 03:20:50;;;;;;;18.27;9.80;;;;;;;;;;4971968;28;20479;-64
2022/04/24 03:23:15;;;;;;;17.45;9.93;;;;;;;;;;4972445;28;20411;-65
2022/04/24 03:25:41;;;;;;;21.60;10.90;;;;;;;;;;4971580;28;20166;-65
2022/04/24 03:28:08;;;;;;;19.23;9.70;;;;;;;;;;4971272;28;20133;-65
2022/04/24 03:30:35;;;;;;;18.05;9.73;;;;;;;;;;4971438;28;20358;-65
2022/04/24 03:33:00;;;;;;;25.55;10.25;;;;;;;;;;4971546;28;20475;-65
2022/04/24 03:35:26;;;;;;;21.33;9.93;;;;;;;;;;4972117;28;20516;-64
2022/04/24 03:37:51;;;;;;;21.58;10.25;;;;;;;;;;4971161;28;20065;-64
2022/04/24 03:40:17;;;;;;;22.27;9.75;;;;;;;;;;4971679;28;20516;-65
2022/04/24 03:42:42;;;;;;;19.80;9.65;;;;;;;;;;4971370;28;20025;-65
2022/04/24 03:45:11;;;;;;;21.75;9.80;;;;;;;;;;4971401;28;20354;-65
2022/04/24 03:47:36;;;;;;;17.80;9.68;;;;;;;;;;4954368;28;20349;-65
2022/04/24 03:50:03;;;;;;;19.73;9.75;;;;;;;;;;4971297;28;20053;-65
2022/04/24 03:52:28;;;;;;;21.67;10.27;;;;;;;;;;4971359;28;20030;-64
2022/04/24 03:54:54;;;;;;;17.95;9.35;;;;;;;;;;4972109;28;20413;-65
2022/04/24 03:57:19;;;;;;;14.68;9.65;;;;;;;;;;4971026;28;20405;-65
2022/04/24 03:59:44;;;;;;;18.15;9.10;;;;;;;;;;4970778;28;20448;-65
2022/04/24 04:02:09;;;;;;;18.70;9.10;;;;;;;;;;4972713;28;20018;-65
2022/04/24 04:04:35;;;;;;;16.13;8.50;;;;;;;;;;4970777;28;20495;-65
2022/04/24 04:07:00;;;;;;;17.42;8.27;;;;;;;;;;4970627;28;20457;-65
2022/04/24 04:09:27;;;;;;;16.25;8.60;;;;;;;;;;4970767;28;20344;-64
2022/04/24 04:11:52;;;;;;;16.90;9.15;;;;;;;;;;4972121;28;20385;-65
2022/04/24 04:14:18;;;;;;;17.70;8.90;;;;;;;;;;4970958;28;20453;-64
2022/04/24 04:16:43;;;;;;;17.23;8.90;;;;;;;;;;4970326;28;20372;-65
2022/04/24 04:19:09;;;;;;;15.90;9.20;;;;;;;;;;4970863;28;20029;-65
2022/04/24 04:21:34;;;;;;;19.92;9.68;;;;;;;;;;4970594;28;20314;-65
2022/04/24 04:24:00;;;;;;;15.73;8.10;;;;;;;;;;4971045;28;20029;-65
2022/04/24 04:26:25;;;;;;;16.60;9.25;;;;;;;;;;4970383;28;20455;-65
2022/04/24 04:28:51;;;;;;;14.63;8.73;;;;;;;;;;4970541;28;20088;-65
2022/04/24 04:31:17;;;;;;;15.00;7.57;;;;;;;;;;4970148;28;20503;-65
2022/04/24 04:33:42;;;;;;;14.00;7.80;;;;;;;;;;4970556;28;20084;-65
2022/04/24 04:36:08;;;;;;;15.48;7.90;;;;;;;;;;4970277;28;20684;-65
2022/04/24 04:38:34;;;;;;;16.98;8.75;;;;;;;;;;4970644;28;20025;-66
2022/04/24 04:40:59;;;;;;;14.82;8.23;;;;;;;;;;4970122;28;20341;-65
2022/04/24 04:43:28;;;;;;;13.65;8.15;;;;;;;;;;4970203;28;20428;-65
2022/04/24 04:45:53;;;;;;;16.45;8.90;;;;;;;;;;4970194;28;20349;-65
2022/04/24 04:48:19;;;;;;;20.67;8.32;;;;;;;;;;4969690;28;20344;-65
2022/04/24 04:50:44;;;;;;;16.92;8.55;;;;;;;;;;4969995;28;20470;-66
2022/04/24 04:53:10;;;;;;;16.77;7.95;;;;;;;;;;4970649;28;20433;-65
2022/04/24 04:55:35;;;;;;;17.30;8.27;;;;;;;;;;4970585;28;20407;-65
2022/04/24 04:58:01;;;;;;;16.77;7.68;;;;;;;;;;4953005;28;20367;-65
2022/04/24 05:00:26;;;;;;;13.50;7.78;;;;;;;;;;4971912;28;20305;-65
2022/04/24 05:02:51;;;;;;;15.73;7.65;;;;;;;;;;4969462;28;20508;-65
2022/04/24 05:05:17;;;;;;;13.00;7.22;;;;;;;;;;4969924;28;20030;-65
2022/04/24 05:07:42;;;;;;;13.50;7.78;;;;;;;;;;4969688;28;20441;-65
2022/04/24 05:10:08;;;;;;;16.95;8.52;;;;;;;;;;4970268;28;20071;-66
2022/04/24 05:12:33;;;;;;;16.35;8.15;;;;;;;;;;4970565;28;20444;-65
2022/04/24 05:15:00;;;;;;;15.50;7.95;;;;;;;;;;4969581;28;20452;-65
2022/04/24 05:17:27;;;;;;;16.48;8.20;;;;;;;;;;4969548;28;20025;-65
2022/04/24 05:19:52;;;;;;;16.42;9.02;;;;;;;;;;4971108;28;20356;-65
2022/04/24 05:22:18;;;;;;;15.95;8.02;;;;;;;;;;4969437;28;20399;-64
2022/04/24 05:24:43;;;;;;;15.00;7.65;;;;;;;;;;4970271;28;20025;-65
2022/04/24 05:27:08;;;;;;;15.95;8.75;;;;;;;;;;4970178;28;20403;-66
2022/04/24 05:29:34;;;;;;;16.05;8.00;;;;;;;;;;4969516;28;20175;-65
2022/04/24 05:31:59;;;;;;;18.52;8.48;;;;;;;;;;4969625;28;20448;-65
2022/04/24 05:34:24;;;;;;;14.00;7.63;;;;;;;;;;4969671;28;20417;-65
2022/04/24 05:36:50;;;;;;;15.75;7.63;;;;;;;;;;4969015;28;20128;-66
2022/04/24 05:39:15;;;;;;;15.60;8.18;;;;;;;;;;4969559;28;20487;-65
2022/04/24 05:41:40;;;;;;;14.77;7.90;;;;;;;;;;4970345;28;20452;-65
2022/04/24 05:44:05;;;;;;;13.90;7.50;;;;;;;;;;4969374;28;20344;-67
2022/04/24 05:46:31;;;;;;;14.93;7.38;;;;;;;;;;4970078;28;20667;-65
2022/04/24 05:48:56;;;;;;;16.70;7.68;;;;;;;;;;4969694;28;20345;-66
2022/04/24 05:51:22;;;;;;;14.98;7.78;;;;;;;;;;4968705;28;20356;-65
2022/04/24 05:53:47;;;;;;;17.45;8.00;;;;;;;;;;4969319;28;20056;-65
2022/04/24 05:56:12;;;;;;;15.30;7.43;;;;;;;;;;4969319;28;20065;-66
2022/04/24 05:58:38;;;;;;;16.65;7.70;;;;;;;;;;4969347;28;20430;-65
2022/04/24 06:01:03;;;;;;;14.30;7.72;;;;;;;;;;4971098;28;20436;-65
2022/04/24 06:03:28;;;;;;;14.43;7.57;;;;;;;;;;4974166;28;20405;-65
2022/04/24 06:05:54;;;;;;;15.27;8.10;;;;;;;;;;4974534;28;20498;-65
2022/04/24 06:08:19;;;;;;;15.10;7.40;;;;;;;;;;4973074;28;20516;-65
2022/04/24 06:10:44;;;;;;;14.73;7.68;;;;;;;;;;4972805;28;20468;-66
2022/04/24 06:13:10;;;;;;;12.90;7.18;;;;;;;;;;4973040;28;20104;-65
2022/04/24 06:15:38;;;;;;;12.43;7.47;;;;;;;;;;4972984;28;20449;-65
2022/04/24 06:18:03;;;;;;;13.85;7.15;;;;;;;;;;4972950;28;20354;-66
2022/04/24 06:20:29;;;;;;;12.20;7.18;;;;;;;;;;4972773;28;20360;-66
2022/04/24 06:22:56;;;;;;;11.70;6.70;;;;;;;;;;4972998;28;20318;-65
2022/04/24 06:25:27;;;;;;;12.55;6.72;;;;;;;;;;4972876;28;20339;-66
2022/04/24 06:27:53;;;;;;;14.05;7.30;;;;;;;;;;4972745;28;20026;-65
2022/04/24 06:30:20;;;;;;;16.52;7.05;;;;;;;;;;4973257;28;20460;-65
2022/04/24 06:32:46;;;;;;;10.57;7.25;;;;;;;;;;4972500;28;20091;-65
2022/04/24 06:35:16;;;;;;;11.57;7.38;;;;;;;;;;4972985;28;20441;-65
2022/04/24 06:37:43;;;;;;;13.07;7.07;;;;;;;;;;4973381;28;20435;-65
2022/04/24 06:40:10;;;;;;;11.63;7.07;;;;;;;;;;4972579;28;20491;-65
2022/04/24 06:42:57;;;;;;;9.90;6.35;;;;;;;;;;4973214;28;20026;-65
2022/04/24 06:45:32;;;;;;;11.70;7.10;;;;;;;;;;4973350;28;20388;-65
2022/04/24 06:48:06;;;;;;;15.85;6.80;;;;;;;;;;4973979;28;20307;-66
2022/04/24 06:50:32;;;;;;;13.38;6.90;;;;;;;;;;4972766;28;20052;-66
2022/04/24 06:53:01;;;;;;;12.40;5.80;;;;;;;;;;4972484;28;20309;-65
2022/04/24 06:55:30;;;;;;;12.20;6.80;;;;;;;;;;4972402;28;20056;-65
2022/04/24 06:57:56;;;;;;;11.85;7.00;;;;;;;;;;4972046;28;20456;-66
2022/04/24 07:00:23;;;;;;;11.45;7.13;;;;;;;;;;4972747;28;20453;-64
2022/04/24 07:02:49;;;;;;;16.00;7.75;;;;;;;;;;4972058;28;20465;-65
2022/04/24 07:05:15;;;;;;;17.70;6.45;;;;;;;;;;4972398;28;20548;-64
2022/04/24 07:07:41;;;;;;;10.15;6.28;;;;;;;;;;4971365;28;20148;-64
2022/04/24 07:10:06;;;;;;;15.18;6.40;;;;;;;;;;4972303;28;20059;-65
2022/04/24 07:12:32;;;;;;;13.23;7.10;;;;;;;;;;4971319;28;20112;-64
2022/04/24 07:14:57;;;;;;;11.52;6.47;;;;;;;;;;4971711;28;20344;-64
2022/04/24 07:17:22;;;;;;;10.82;5.80;;;;;;;;;;4972822;28;20428;-64
2022/04/24 07:19:48;;;;;;;12.95;6.90;;;;;;;;;;4971441;28;20455;-64
2022/04/24 07:22:13;;;;;;;11.27;6.45;;;;;;;;;;4972000;28;20479;-64
2022/04/24 07:24:39;;;;;;;11.30;6.80;;;;;;;;;;4971806;28;20419;-64
2022/04/24 07:27:04;;;;;;;12.57;6.60;;;;;;;;;;4971912;28;20441;-64
2022/04/24 07:29:29;;;;;;;11.18;6.47;;;;;;;;;;4971984;28;20057;-64
2022/04/24 07:31:55;;;;;;;10.55;5.97;;;;;;;;;;4971838;28;20433;-64
2022/04/24 07:34:20;;;;;;;11.82;7.00;;;;;;;;;;4971180;28;20444;-64
2022/04/24 07:36:45;;;;;;;12.00;6.55;;;;;;;;;;4971670;28;20022;-64
2022/04/24 07:39:13;;;;;;;10.80;6.78;;;;;;;;;;4972133;28;20326;-63
2022/04/24 07:41:38;;;;;;;10.57;5.72;;;;;;;;;;4972106;28;20364;-63
2022/04/24 07:44:03;;;;;;;10.27;6.43;;;;;;;;;;4972470;28;20325;-63
2022/04/24 07:46:29;;;;;;;12.85;6.57;;;;;;;;;;4971235;28;20421;-64
2022/04/24 07:48:54;;;;;;;13.13;6.30;;;;;;;;;;4971906;28;20112;-64
2022/04/24 07:51:19;;;;;;;21.25;9.13;;;;;;;;;;4970925;28;20338;-65
2022/04/24 07:53:45;;;;;;;22.13;10.75;;;;;;;;;;4971451;28;20425;-63
2022/04/24 07:56:10;;;;;;;24.23;11.23;;;;;;;;;;4972047;28;20492;-63
2022/04/24 07:58:36;;;;;;;18.58;9.50;;;;;;;;;;4971426;28;20464;-64
2022/04/24 08:01:01;;;;;;;20.20;9.10;;;;;;;;;;4970986;28;20499;-64
2022/04/24 08:03:26;;;;;;;23.13;9.25;;;;;;;;;;4971910;28;20595;-65
2022/04/24 08:05:52;;;;;;;19.27;9.10;;;;;;;;;;4971474;28;20029;-64
2022/04/24 08:08:18;;;;;;;17.08;8.20;;;;;;;;;;4970375;28;20337;-63
2022/04/24 08:10:49;;;;;;;16.92;9.05;;;;;;;;;;4971323;28;20061;-64
2022/04/24 08:13:15;;;;;;;19.05;9.20;;;;;;;;;;4971343;28;20448;-64
2022/04/24 08:15:41;;;;;;;19.55;9.00;;;;;;;;;;4972775;28;20525;-64
2022/04/24 08:18:07;;;;;;;16.63;7.55;;;;;;;;;;4970535;28;20332;-63
2022/04/24 08:20:34;;;;;;;12.70;7.05;;;;;;;;;;4970779;28;20324;-65
2022/04/24 08:23:01;;;;;;;16.88;8.93;;;;;;;;;;4970270;28;20490;-63
2022/04/24 08:25:27;;;;;;;17.48;8.20;;;;;;;;;;4971684;28;20318;-64
2022/04/24 08:27:55;;;;;;;15.30;8.40;;;;;;;;;;4970273;28;20329;-65
2022/04/24 08:30:23;;;;;;;17.70;8.57;;;;;;;;;;4970430;28;20481;-64
2022/04/24 08:32:48;;;;;;;17.95;8.68;;;;;;;;;;4970706;28;20491;-64
2022/04/24 08:35:16;;;;;;;16.30;8.52;;;;;;;;;;4971359;28;20492;-64
2022/04/24 08:37:42;;;;;;;20.95;8.90;;;;;;;;;;4970364;28;20476;-64
2022/04/24 08:40:12;;;;;;;18.27;8.55;;;;;;;;;;4970884;28;20407;-65
2022/04/24 08:42:38;;;;;;;19.98;8.07;;;;;;;;;;4970272;28;20436;-64
2022/04/24 08:45:04;;;;;;;17.38;8.98;;;;;;;;;;4970258;28;20476;-64
2022/04/24 08:47:30;;;;;;;16.42;8.20;;;;;;;;;;4970271;28;20432;-64
2022/04/24 08:50:00;;;;;;;19.50;7.97;;;;;;;;;;4969949;28;20463;-64
2022/04/24 08:52:25;;;;;;;;;;;;;;;;;;4970820;28;20334;-64
2022/04/24 08:54:51;;;;;;;16.33;8.27;;;;;;;;;;4970594;28;20267;-65
2022/04/24 08:57:18;;;;;;;19.30;7.82;;;;;;;;;;4970000;28;20360;-64
2022/04/24 08:59:44;;;;;;;22.40;11.63;;;;;;;;;;4969437;28;20436;-64
2022/04/24 09:02:09;;;;;;;38.97;21.67;;;;;;;;;;4970510;28;20403;-65
2022/04/24 09:04:36;;;;;;;121.45;63.78;;;;;;;;;;4970053;28;20037;-64
2022/04/24 09:07:04;;;;;;;96.13;52.97;;;;;;;;;;4969572;28;20388;-65
2022/04/24 09:09:31;;;;;;;107.20;55.25;;;;;;;;;;4971614;28;20427;-65
2022/04/24 09:12:12;;;;;;;109.25;55.72;;;;;;;;;;4951182;28;20103;-64
2022/04/24 09:14:38;;;;;;;120.50;64.95;;;;;;;;;;4969428;28;20436;-64
2022/04/24 09:17:16;;;;;;;124.80;67.45;;;;;;;;;;4969713;28;20388;-64
2022/04/24 09:19:42;;;;;;;122.27;63.53;;;;;;;;;;4969412;28;20025;-64
2022/04/24 09:22:09;;;;;;;117.47;61.58;;;;;;;;;;4969173;28;20456;-64
2022/04/24 09:24:45;;;;;;;100.30;56.58;;;;;;;;;;4971123;28;20440;-65
2022/04/24 09:27:12;;;;;;;100.05;55.70;;;;;;;;;;4971594;28;20491;-65
2022/04/24 09:29:40;;;;;;;93.25;50.70;;;;;;;;;;4968928;28;20449;-65
2022/04/24 09:32:11;;;;;;;90.00;47.50;;;;;;;;;;4951478;28;20398;-64
2022/04/24 09:34:37;;;;;;;80.05;44.90;;;;;;;;;;4969480;28;20364;-64
2022/04/24 09:37:06;;;;;;;83.55;43.33;;;;;;;;;;4969909;28;20419;-64
2022/04/24 09:39:33;;;;;;;73.72;43.15;;;;;;;;;;4969239;28;20325;-64
2022/04/24 09:42:10;;;;;;;76.05;43.13;;;;;;;;;;4969357;28;20444;-64
2022/04/24 09:44:46;;;;;;;80.97;42.92;;;;;;;;;;4969157;28;20455;-64
2022/04/24 09:47:12;;;;;;;71.32;40.00;;;;;;;;;;4969267;28;20452;-64
2022/04/24 09:49:39;;;;;;;65.72;37.10;;;;;;;;;;4969633;28;20486;-64
2022/04/24 09:52:10;;;;;;;69.72;37.47;;;;;;;;;;4949261;28;20380;-64
2022/04/24 09:54:37;;;;;;;68.93;37.85;;;;;;;;;;4968490;28;20425;-65
2022/04/24 09:57:03;;;;;;;70.97;37.58;;;;;;;;;;4970197;28;20030;-64
2022/04/24 09:59:28;;;;;;;64.63;35.30;;;;;;;;;;4969860;28;20445;-64
2022/04/24 10:01:54;;;;;;;64.97;37.42;;;;;;;;;;4969038;28;20545;-65
2022/04/24 10:04:20;;;;;;;62.40;35.97;;;;;;;;;;4969321;28;20356;-65
2022/04/24 10:06:46;;;;;;;63.03;35.20;;;;;;;;;;4968434;28;20108;-65
2022/04/24 10:09:13;;;;;;;58.65;33.45;;;;;;;;;;4969095;28;20419;-65
2022/04/24 10:11:39;;;;;;;53.65;31.60;;;;;;;;;;4968924;28;20498;-64
2022/04/24 10:14:07;;;;;;;56.65;31.30;;;;;;;;;;4968979;28;20488;-64
2022/04/24 10:16:37;;;;;;;54.75;32.50;;;;;;;;;;4969123;28;20459;-63
2022/04/24 10:19:21;;;;;;;61.88;31.45;;;;;;;;;;4969517;28;20368;-64
2022/04/24 10:22:11;;;;;;;54.58;30.50;;;;;;;;;;4970054;28;20134;-64
2022/04/24 10:24:41;;;;;;;47.63;28.73;;;;;;;;;;4969342;28;20365;-64
2022/04/24 10:27:07;;;;;;;50.63;28.17;;;;;;;;;;4968867;28;20515;-64
2022/04/24 10:29:33;;;;;;;49.65;27.35;;;;;;;;;;4969778;28;20341;-66
2022/04/24 10:31:59;;;;;;;50.53;28.45;;;;;;;;;;4969103;28;20044;-64
2022/04/24 10:34:25;;;;;;;50.88;26.67;;;;;;;;;;4969819;28;20025;-65
2022/04/24 10:36:58;;;;;;;52.22;27.88;;;;;;;;;;4968763;28;20462;-64
2022/04/24 10:39:26;;;;;;;47.70;26.52;;;;;;;;;;4969012;28;20030;-63
2022/04/24 10:41:55;;;;;;;42.70;25.90;;;;;;;;;;4968492;28;20503;-64
2022/04/24 10:44:22;;;;;;;48.17;25.67;;;;;;;;;;4968903;28;20276;-64
2022/04/24 10:46:48;;;;;;;42.78;25.42;;;;;;;;;;4971600;28;20363;-63
2022/04/24 10:49:18;;;;;;;50.00;28.20;;;;;;;;;;4954672;28;20029;-64
2022/04/24 10:52:04;;;;;;;45.00;25.92;;;;;;;;;;4971832;28;20491;-63
2022/04/24 10:54:34;;;;;;;45.00;24.25;;;;;;;;;;4971911;28;20520;-63
2022/04/24 10:57:01;;;;;;;41.22;24.48;;;;;;;;;;4972217;28;20488;-63
2022/04/24 10:59:26;;;;;;;47.03;26.67;;;;;;;;;;4972184;28;20297;-63
2022/04/24 11:01:54;;;;;;;39.88;22.55;;;;;;;;;;4972272;28;20370;-64
2022/04/24 11:04:20;;;;;;;45.70;23.55;;;;;;;;;;4972434;28;20340;-64
2022/04/24 11:06:59;;;;;;;38.53;22.65;;;;;;;;;;4972211;28;20333;-64
2022/04/24 11:09:31;;;;;;;41.55;22.25;;;;;;;;;;4971896;28;20479;-63
2022/04/24 11:11:58;;;;;;;42.35;23.20;;;;;;;;;;4973459;28;20338;-63
2022/04/24 11:14:25;;;;;;;43.00;22.10;;;;;;;;;;4971985;28;20056;-63
2022/04/24 11:16:56;;;;;;;40.45;21.95;;;;;;;;;;4971818;28;20320;-63
2022/04/24 11:19:42;;;;;;;41.75;22.70;;;;;;;;;;4973060;28;20025;-63
2022/04/24 11:22:12;;;;;;;37.22;20.83;;;;;;;;;;4972294;28;20037;-63
2022/04/24 11:24:40;;;;;;;41.35;22.75;;;;;;;;;;4972321;28;20365;-63
2022/04/24 11:27:09;;;;;;;36.38;21.55;;;;;;;;;;4971998;28;20452;-64
2022/04/24 11:29:35;;;;;;;35.35;19.83;;;;;;;;;;4971431;28;20413;-64
2022/04/24 11:32:02;;;;;;;36.58;20.70;;;;;;;;;;4971677;28;20344;-63
2022/04/24 11:34:28;;;;;;;36.53;20.27;;;;;;;;;;4971397;28;20433;-65
2022/04/24 11:36:59;;;;;;;37.83;19.88;;;;;;;;;;4971992;28;20506;-63
2022/04/24 11:39:24;;;;;;;32.35;19.52;;;;;;;;;;4971932;28;20041;-64
2022/04/24 11:41:51;;;;;;;37.60;22.38;;;;;;;;;;4971689;28;20022;-65
2022/04/24 11:50:14;;;;;;;29.58;18.27;;;;;;;;;;4972149;28;20502;-64
2022/04/24 11:52:47;;;;;;;31.58;18.73;;;;;;;;;;4972430;28;20029;-64
2022/04/24 11:55:23;;;;;;;34.17;19.80;;;;;;;;;;4971094;28;20451;-64
2022/04/24 11:57:59;;;;;;;30.77;18.55;;;;;;;;;;4969766;28;20440;-64
2022/04/24 12:00:35;;;;;;;29.83;18.38;;;;;;;;;;4971632;28;20483;-63
2022/04/24 12:03:01;;;;;;;30.73;18.73;;;;;;;;;;4971152;28;20429;-63
2022/04/24 12:05:30;;;;;;;30.83;17.75;;;;;;;;;;4971625;28;20344;-64
2022/04/24 12:07:56;;;;;;;26.58;17.55;;;;;;;;;;4970846;28;20465;-64
2022/04/24 12:10:23;;;;;;;30.30;17.75;;;;;;;;;;4971877;28;20064;-64
2022/04/24 12:12:52;;;;;;;27.60;16.65;;;;;;;;;;4970946;28;20421;-64
2022/04/24 12:15:19;;;;;;;30.20;17.52;;;;;;;;;;4971972;28;20374;-64
2022/04/24 12:17:51;;;;;;;27.02;16.65;;;;;;;;;;4970860;28;20033;-64
2022/04/24 12:20:16;;;;;;;26.42;16.40;;;;;;;;;;4970602;28;20333;-64
2022/04/24 12:22:42;;;;;;;29.75;17.20;;;;;;;;;;4971865;28;20337;-64
2022/04/24 12:25:12;;;;;;;29.95;16.98;;;;;;;;;;4970456;28;20393;-63
2022/04/24 12:27:38;;;;;;;31.90;17.13;;;;;;;;;;4971225;28;20411;-64
2022/04/24 12:30:06;;;;;;;31.27;16.52;;;;;;;;;;4970666;28;20347;-64
2022/04/24 12:32:34;;;;;;;27.98;16.10;;;;;;;;;;4970139;28;20505;-64
2022/04/24 12:34:59;;;;;;;26.95;15.82;;;;;;;;;;4970783;28;20034;-64
2022/04/24 12:37:33;;;;;;;26.35;16.08;;;;;;;;;;4952920;28;20448;-64
2022/04/24 12:39:59;;;;;;;25.98;15.48;;;;;;;;;;4970570;28;20029;-64
2022/04/24 12:42:25;;;;;;;27.25;15.65;;;;;;;;;;4970460;28;20326;-64
2022/04/24 12:44:51;;;;;;;23.08;15.10;;;;;;;;;;4970320;28;20499;-64
2022/04/24 12:47:17;;;;;;;24.45;13.40;;;;;;;;;;4970341;28;20333;-65
2022/04/24 12:49:45;;;;;;;24.23;15.02;;;;;;;;;;4969732;28;20429;-64
2022/04/24 12:52:12;;;;;;;25.63;14.48;;;;;;;;;;4970265;28;20413;-64
2022/04/24 12:54:37;;;;;;;23.20;14.30;;;;;;;;;;4970227;28;20444;-64
2022/04/24 12:57:11;;;;;;;29.17;14.45;;;;;;;;;;4971745;28;20379;-64
2022/04/24 12:59:39;;;;;;;23.35;13.00;;;;;;;;;;4970780;28;20368;-64
2022/04/24 13:02:05;;;;;;;24.48;14.55;;;;;;;;;;4971668;28;20437;-64
2022/04/24 13:04:32;;;;;;;24.10;14.38;;;;;;;;;;4970398;28;20464;-64
2022/04/24 13:06:57;;;;;;;21.58;13.00;;;;;;;;;;4951497;28;20372;-64
2022/04/24 13:09:22;;;;;;;27.52;13.70;;;;;;;;;;4969368;28;20037;-64
2022/04/24 13:11:48;;;;;;;29.20;15.25;;;;;;;;;;4970036;28;20397;-64
2022/04/24 13:14:13;;;;;;;29.63;14.95;;;;;;;;;;4969920;28;20326;-64
2022/04/24 13:19:24;;;;;;;31.33;15.52;;;;;;;;;;4954661;28;20052;-64
2022/04/24 13:21:49;;;;;;;35.60;15.50;;;;;;;;;;4969533;28;20025;-64
2022/04/24 13:24:15;;;;;;;27.92;13.88;;;;;;;;;;4970055;28;20428;-64
2022/04/24 13:26:40;;;;;;;31.45;14.43;;;;;;;;;;4969539;28;20334;-64
2022/04/24 13:29:05;;;;;;;28.98;13.98;;;;;;;;;;4969381;28;20471;-65
2022/04/24 13:31:31;;;;;;;25.52;13.30;;;;;;;;;;4969385;28;20518;-64
2022/04/24 13:33:56;;;;;;;29.67;14.07;;;;;;;;;;4969514;28;20413;-64
2022/04/24 13:36:22;;;;;;;29.73;14.70;;;;;;;;;;4969447;28;20072;-64
2022/04/24 13:38:48;;;;;;;29.80;13.70;;;;;;;;;;4969388;28;20433;-63
2022/04/24 13:41:14;;;;;;;21.17;12.50;;;;;;;;;;4970180;28;20436;-65
2022/04/24 13:43:39;;;;;;;23.13;13.18;;;;;;;;;;4969127;28;20401;-64
2022/04/24 13:46:05;;;;;;;20.95;11.88;;;;;;;;;;4969213;28;20439;-64
2022/04/24 13:48:31;;;;;;;23.15;12.70;;;;;;;;;;4969893;28;20325;-64
2022/04/24 13:50:58;;;;;;;23.67;11.38;;;;;;;;;;4969508;28;20329;-64
2022/04/24 13:53:26;;;;;;;20.55;12.45;;;;;;;;;;4951514;28;20092;-64
2022/04/24 13:55:52;;;;;;;21.98;12.68;;;;;;;;;;4969144;28;20103;-64
2022/04/24 13:58:17;;;;;;;21.55;11.35;;;;;;;;;;4969230;28;20029;-65
2022/04/24 14:00:44;;;;;;;22.92;11.75;;;;;;;;;;4969214;28;20456;-64
2022/04/24 14:03:10;;;;;;;25.13;12.32;;;;;;;;;;4969222;28;20456;-64
2022/04/24 14:05:36;;;;;;;21.67;12.13;;;;;;;;;;4969083;28;20445;-65
2022/04/24 14:08:01;;;;;;;24.58;11.27;;;;;;;;;;4968452;28;20485;-64
2022/04/24 14:10:27;;;;;;;21.70;12.00;;;;;;;;;;4968983;28;20384;-64
2022/04/24 14:12:52;;;;;;;19.67;11.27;;;;;;;;;;4969558;28;20104;-64
2022/04/24 14:15:18;;;;;;;18.90;11.70;;;;;;;;;;4970026;28;20336;-64
2022/04/24 14:17:44;;;;;;;19.65;11.30;;;;;;;;;;4969005;28;20468;-64
2022/04/24 14:20:10;;;;;;;18.05;10.25;;;;;;;;;;4969572;28;20593;-65
2022/04/24 14:22:35;;;;;;;20.48;10.88;;;;;;;;;;4971366;28;20109;-64
2022/04/24 14:25:02;;;;;;;23.48;12.30;;;;;;;;;;4972718;28;20469;-64
2022/04/24 14:27:27;;;;;;;16.98;10.35;;;;;;;;;;4973370;28;20021;-64